createdAt,value
2022-12-31T00:00:18.459Z,98654.63
2022-12-31T00:03:12.414Z,98648.24
2022-12-31T00:05:46.732Z,98647.45
2022-12-31T00:08:19.415Z,98643.16
2022-12-31T00:10:52.137Z,98645.66
2022-12-31T00:13:25.767Z,98652.59
2022-12-31T00:16:12.300Z,98659.08
2022-12-31T00:18:49.318Z,98657.36
2022-12-31T00:21:23.549Z,98661.53
2022-12-31T00:23:56.201Z,98661.41
2022-12-31T00:26:31.175Z,98665.90
2022-12-31T00:29:05.019Z,98668.73
2022-12-31T00:31:40.310Z,98670.70
2022-12-31T00:34:13.986Z,98672.14
2022-12-31T00:36:47.703Z,98663.06
2022-12-31T00:39:20.455Z,98666.91
2022-12-31T00:41:52.555Z,98669.45
2022-12-31T00:44:24.816Z,98678.44
2022-12-31T00:46:59.034Z,98682.77
2022-12-31T00:49:33.923Z,98678.94
2022-12-31T00:52:08.315Z,98676.58
2022-12-31T00:54:40.875Z,98676.41
2022-12-31T00:57:14.108Z,98678.31
2022-12-31T00:59:47.094Z,98680.64
2022-12-31T01:02:21.217Z,98689.65
2022-12-31T01:04:57.050Z,98692.55
2022-12-31T01:07:29.331Z,98686.41
2022-12-31T01:10:01.230Z,98683.84
2022-12-31T01:12:37.026Z,98682.39
2022-12-31T01:15:11.288Z,98683.78
2022-12-31T01:17:44.966Z,98681.59
2022-12-31T01:20:19.090Z,98692.41
2022-12-31T01:22:52.290Z,98695.25
2022-12-31T01:25:25.008Z,98691.35
2022-12-31T01:27:56.973Z,98702.52
2022-12-31T01:30:28.789Z,98710.45
2022-12-31T01:33:03.128Z,98703.89
2022-12-31T01:35:37.248Z,98697.41
2022-12-31T01:38:12.013Z,98687.13
2022-12-31T01:40:46.918Z,98673.25
2022-12-31T01:43:20.812Z,98673.56
2022-12-31T01:45:54.756Z,98671.33
2022-12-31T01:48:28.550Z,98684.33
2022-12-31T01:51:00.828Z,98682.52
2022-12-31T01:53:40.927Z,98685.53
2022-12-31T01:56:14.880Z,98682.13
2022-12-31T01:58:50.982Z,98688.46
2022-12-31T02:01:31.186Z,98692.00
2022-12-31T02:04:09.457Z,98687.99
2022-12-31T02:06:45.575Z,98679.67
2022-12-31T02:09:19.577Z,98681.21
2022-12-31T02:11:54.280Z,98688.48
2022-12-31T02:14:30.084Z,98693.85
2022-12-31T02:17:09.641Z,98701.57
2022-12-31T02:20:09.592Z,98698.81
2022-12-31T02:23:04.942Z,98691.09
2022-12-31T02:25:54.430Z,98681.05
2022-12-31T02:28:38.678Z,98671.55
2022-12-31T02:31:16.808Z,98668.80
2022-12-31T02:33:56.538Z,98667.73
2022-12-31T02:36:31.294Z,98664.98
2022-12-31T02:39:06.708Z,98657.09
2022-12-31T02:41:52.635Z,98656.23
2022-12-31T02:44:27.713Z,98654.75
2022-12-31T02:47:12.561Z,98640.91
2022-12-31T02:49:59.359Z,98636.30
2022-12-31T02:52:39.120Z,98630.35
2022-12-31T02:55:16.582Z,98625.83
2022-12-31T02:57:52.462Z,98615.13
2022-12-31T03:00:44.436Z,98601.77
2022-12-31T03:03:18.679Z,98600.92
2022-12-31T03:05:53.545Z,98612.68
2022-12-31T03:08:29.358Z,98633.60
2022-12-31T03:11:21.439Z,98640.49
2022-12-31T03:13:53.407Z,98648.19
2022-12-31T03:16:26.168Z,98650.31
2022-12-31T03:19:19.128Z,98655.58
2022-12-31T03:22:13.020Z,98665.76
2022-12-31T03:25:06.621Z,98668.64
2022-12-31T03:27:43.834Z,98670.23
2022-12-31T03:30:18.985Z,98669.46
2022-12-31T03:32:51.555Z,98665.36
2022-12-31T03:35:25.307Z,98656.04
2022-12-31T03:38:00.148Z,98653.79
2022-12-31T03:40:41.672Z,98660.36
2022-12-31T03:43:14.034Z,98666.46
2022-12-31T03:45:47.821Z,98664.44
2022-12-31T03:48:20.998Z,98658.36
2022-12-31T03:50:59.544Z,98654.70
2022-12-31T03:53:32.264Z,98656.75
2022-12-31T03:56:07.300Z,98666.30
2022-12-31T03:58:39.906Z,98668.54
2022-12-31T04:01:17.561Z,98675.16
2022-12-31T04:03:49.679Z,98673.86
2022-12-31T04:06:22.443Z,98672.10
2022-12-31T04:08:57.198Z,98672.20
2022-12-31T04:11:30.066Z,98672.08
2022-12-31T04:14:04.783Z,98669.88
2022-12-31T04:16:39.987Z,98666.95
2022-12-31T04:19:16.509Z,98661.92
2022-12-31T04:21:50.526Z,98665.73
2022-12-31T04:24:27.207Z,98665.03
2022-12-31T04:27:07.013Z,98667.48
2022-12-31T04:29:40.038Z,98675.31
2022-12-31T04:32:15.469Z,98675.21
2022-12-31T04:34:48.495Z,98680.17
2022-12-31T04:37:22.277Z,98686.05
2022-12-31T04:39:55.436Z,98688.18
2022-12-31T04:42:30.707Z,98693.33
2022-12-31T04:45:02.680Z,98689.91
2022-12-31T04:47:35.636Z,98690.84
2022-12-31T04:50:09.815Z,98696.13
2022-12-31T04:52:44.715Z,98698.98
2022-12-31T04:55:20.195Z,98700.77
2022-12-31T04:57:53.703Z,98708.15
2022-12-31T05:00:25.682Z,98707.64
2022-12-31T05:02:57.609Z,98710.46
2022-12-31T05:05:31.368Z,98710.48
2022-12-31T05:08:05.528Z,98710.50
2022-12-31T05:10:37.679Z,98713.48
2022-12-31T05:13:10.528Z,98716.47
2022-12-31T05:15:46.712Z,98708.77
2022-12-31T05:18:20.186Z,98711.58
2022-12-31T05:20:56.692Z,98716.48
2022-12-31T05:23:32.535Z,98712.66
2022-12-31T05:26:06.498Z,98702.70
2022-12-31T05:28:40.570Z,98698.92
2022-12-31T05:31:15.621Z,98688.77
2022-12-31T05:33:50.659Z,98691.08
2022-12-31T05:36:24.114Z,98690.23
2022-12-31T05:38:56.934Z,98692.73
2022-12-31T05:41:31.145Z,98691.33
2022-12-31T05:44:05.734Z,98692.92
2022-12-31T05:46:38.927Z,98696.48
2022-12-31T05:49:11.913Z,98697.70
2022-12-31T05:51:44.985Z,98701.42
2022-12-31T05:54:18.974Z,98710.59
2022-12-31T05:56:51.513Z,98714.34
2022-12-31T05:59:24.798Z,98719.08
2022-12-31T06:01:59.025Z,98711.89
2022-12-31T06:04:35.121Z,98717.86
2022-12-31T06:07:10.632Z,98715.41
2022-12-31T06:09:43.567Z,98714.38
2022-12-31T06:12:19.680Z,98718.41
2022-12-31T06:14:52.226Z,98732.77
2022-12-31T06:17:27.070Z,98734.01
2022-12-31T06:20:04.841Z,98741.75
2022-12-31T06:22:40.253Z,98735.47
2022-12-31T06:25:15.956Z,98730.45
2022-12-31T06:27:49.640Z,98727.85
2022-12-31T06:30:23.684Z,98724.38
2022-12-31T06:32:57.296Z,98723.20
2022-12-31T06:35:30.851Z,98720.27
2022-12-31T06:38:04.737Z,98706.81
2022-12-31T06:40:40.470Z,98712.98
2022-12-31T06:43:15.693Z,98713.34
2022-12-31T06:45:50.799Z,98709.11
2022-12-31T06:48:26.608Z,98704.05
2022-12-31T06:51:13.401Z,98715.77
2022-12-31T06:53:50.935Z,98722.25
2022-12-31T06:56:33.140Z,98725.09
2022-12-31T06:59:11.076Z,98732.32
2022-12-31T07:01:53.545Z,98738.16
2022-12-31T07:04:50.400Z,98741.85
2022-12-31T07:07:30.362Z,98743.86
2022-12-31T07:10:11.923Z,98744.23
2022-12-31T07:12:57.731Z,98746.20
2022-12-31T07:15:45.587Z,98749.92
2022-12-31T07:18:25.929Z,98752.61
2022-12-31T07:20:59.023Z,98755.09
2022-12-31T07:23:33.750Z,98756.69
2022-12-31T07:26:12.143Z,98760.59
2022-12-31T07:28:57.678Z,98771.17
2022-12-31T07:31:43.468Z,98771.05
2022-12-31T07:34:23.677Z,98775.83
2022-12-31T07:37:04.150Z,98774.98
2022-12-31T07:39:45.325Z,98769.92
2022-12-31T07:42:23.930Z,98767.80
2022-12-31T07:45:05.375Z,98766.58
2022-12-31T07:47:39.203Z,98763.08
2022-12-31T07:50:18.321Z,98760.61
2022-12-31T07:52:54.315Z,98773.96
2022-12-31T07:55:28.897Z,98781.69
2022-12-31T07:58:07.658Z,98784.31
2022-12-31T08:00:41.521Z,98774.86
2022-12-31T08:03:26.222Z,98772.59
2022-12-31T08:06:10.302Z,98780.14
2022-12-31T08:08:51.671Z,98783.35
2022-12-31T08:11:29.992Z,98783.20
2022-12-31T08:14:05.353Z,98781.25
2022-12-31T08:16:39.604Z,98784.82
2022-12-31T08:19:18.659Z,98783.27
2022-12-31T08:21:59.910Z,98781.18
2022-12-31T08:24:40.708Z,98786.66
2022-12-31T08:27:22.360Z,98791.60
2022-12-31T08:30:05.568Z,98779.67
2022-12-31T08:32:45.085Z,98766.71
2022-12-31T08:35:28.744Z,98770.95
2022-12-31T08:38:09.257Z,98766.61
2022-12-31T08:40:51.294Z,98767.00
2022-12-31T08:43:38.856Z,98775.46
2022-12-31T08:46:20.696Z,98786.90
2022-12-31T08:48:55.047Z,98793.44
2022-12-31T08:51:28.717Z,98805.74
2022-12-31T08:54:04.100Z,98799.78
2022-12-31T08:56:48.839Z,98794.52
2022-12-31T08:59:37.038Z,98792.62
2022-12-31T09:02:35.384Z,98793.68
2022-12-31T09:05:20.421Z,98802.13
2022-12-31T09:08:00.207Z,98786.66
2022-12-31T09:10:37.998Z,98779.09
2022-12-31T09:13:20.644Z,98778.39
2022-12-31T09:15:58.719Z,98781.02
2022-12-31T09:18:34.334Z,98773.98
2022-12-31T09:21:09.080Z,98762.38
2022-12-31T09:23:43.376Z,98754.27
2022-12-31T09:26:31.290Z,98753.20
2022-12-31T09:29:10.728Z,98744.91
2022-12-31T09:31:48.357Z,98755.11
2022-12-31T09:34:27.008Z,98759.85
2022-12-31T09:37:06.960Z,98769.34
2022-12-31T09:39:42.474Z,98770.20
2022-12-31T09:42:57.262Z,98769.66
2022-12-31T09:45:54.005Z,98770.54
2022-12-31T09:48:57.311Z,98770.19
2022-12-31T09:51:34.110Z,98771.63
2022-12-31T09:54:44.216Z,98772.34
2022-12-31T09:57:33.006Z,98774.10
2022-12-31T10:00:11.056Z,98769.71
2022-12-31T10:02:53.994Z,98763.38
2022-12-31T10:05:41.372Z,98762.30
2022-12-31T10:08:24.583Z,98756.28
2022-12-31T10:11:03.412Z,98753.10
2022-12-31T10:13:45.300Z,98750.98
2022-12-31T10:16:38.102Z,98750.25
2022-12-31T10:19:40.683Z,98738.45
2022-12-31T10:22:36.100Z,98739.46
2022-12-31T10:25:38.381Z,98748.59
2022-12-31T10:28:26.001Z,98748.88
2022-12-31T10:31:16.812Z,98748.98
2022-12-31T10:34:02.301Z,98757.94
2022-12-31T10:36:45.158Z,98756.84
2022-12-31T10:39:28.625Z,98757.02
2022-12-31T10:42:22.182Z,98765.82
2022-12-31T10:45:38.492Z,98779.20
2022-12-31T10:48:31.200Z,98783.94
2022-12-31T10:51:19.285Z,98773.51
2022-12-31T10:54:16.824Z,98778.23
2022-12-31T10:57:16.460Z,98772.54
2022-12-31T11:00:17.546Z,98767.76
2022-12-31T11:03:29.225Z,98761.89
2022-12-31T11:06:34.730Z,98760.94
2022-12-31T11:09:37.905Z,98748.57
2022-12-31T11:12:22.771Z,98745.91
2022-12-31T11:15:14.712Z,98753.45
2022-12-31T11:17:58.293Z,98758.88
2022-12-31T11:21:07.532Z,98757.43
2022-12-31T11:23:43.714Z,98753.70
2022-12-31T11:26:25.984Z,98749.27
2022-12-31T11:29:08.703Z,98748.02
2022-12-31T11:31:58.545Z,98739.71
2022-12-31T11:34:50.465Z,98742.19
2022-12-31T11:37:32.863Z,98742.22
2022-12-31T11:40:23.607Z,98737.98
2022-12-31T11:43:00.229Z,98736.84
2022-12-31T11:46:00.584Z,98733.62
2022-12-31T11:48:36.120Z,98724.73
2022-12-31T11:51:31.066Z,98721.85
2022-12-31T11:54:34.520Z,98730.63
2022-12-31T11:57:25.482Z,98735.46
2022-12-31T12:00:06.047Z,98729.05
2022-12-31T12:02:44.407Z,98728.82
2022-12-31T12:05:22.449Z,98729.88
2022-12-31T12:07:57.316Z,98727.17
2022-12-31T12:10:36.536Z,98728.88
2022-12-31T12:13:20.225Z,98721.75
2022-12-31T12:15:54.651Z,98719.01
2022-12-31T12:18:36.557Z,98716.16
2022-12-31T12:21:13.194Z,98710.34
2022-12-31T12:23:59.397Z,98705.05
2022-12-31T12:26:37.671Z,98709.33
2022-12-31T12:29:18.141Z,98712.89
2022-12-31T12:32:03.105Z,98712.36
2022-12-31T12:34:36.707Z,98714.50
2022-12-31T12:37:18.068Z,98715.19
2022-12-31T12:39:59.437Z,98711.09
2022-12-31T12:42:36.642Z,98712.31
2022-12-31T12:45:18.272Z,98707.75
2022-12-31T12:47:52.764Z,98714.50
2022-12-31T12:50:34.685Z,98714.85
2022-12-31T12:53:15.859Z,98710.80
2022-12-31T12:56:00.720Z,98710.09
2022-12-31T12:58:47.568Z,98713.66
2022-12-31T13:01:28.982Z,98706.27
2022-12-31T13:04:34.444Z,98706.32
2022-12-31T13:07:20.362Z,98701.58
2022-12-31T13:10:05.925Z,98694.88
2022-12-31T13:13:21.979Z,98687.61
2022-12-31T13:15:49.268Z,98691.83
2022-12-31T13:18:35.675Z,98693.83
2022-12-31T13:21:18.424Z,98695.80
2022-12-31T13:23:53.462Z,98703.05
2022-12-31T13:26:29.096Z,98702.91
2022-12-31T13:29:03.184Z,98702.05
2022-12-31T13:31:44.228Z,98704.69
2022-12-31T13:34:20.729Z,98711.23
2022-12-31T13:36:57.473Z,98719.89
2022-12-31T13:39:35.187Z,98721.85
2022-12-31T13:42:12.984Z,98718.17
2022-12-31T13:44:50.447Z,98721.91
2022-12-31T13:47:32.185Z,98724.41
2022-12-31T13:50:15.105Z,98728.00
2022-12-31T13:52:53.157Z,98731.77
2022-12-31T13:55:29.966Z,98733.77
2022-12-31T13:58:10.551Z,98734.52
2022-12-31T14:00:49.063Z,98740.91
2022-12-31T14:03:27.130Z,98746.92
2022-12-31T14:06:06.727Z,98745.53
2022-12-31T14:08:43.615Z,98753.70
2022-12-31T14:11:28.262Z,98750.38
2022-12-31T14:14:13.580Z,98748.98
2022-12-31T14:16:52.995Z,98751.11
2022-12-31T14:19:41.034Z,98748.52
2022-12-31T14:22:18.415Z,98749.23
2022-12-31T14:24:54.901Z,98753.50
2022-12-31T14:27:30.829Z,98757.77
2022-12-31T14:30:06.532Z,98755.29
2022-12-31T14:33:03.023Z,98752.33
2022-12-31T14:35:49.432Z,98757.11
2022-12-31T14:38:29.507Z,98757.51
2022-12-31T14:41:13.754Z,98761.77
2022-12-31T14:43:52.691Z,98758.27
2022-12-31T14:46:32.893Z,98751.60
2022-12-31T14:49:18.182Z,98751.44
2022-12-31T14:51:54.202Z,98750.05
2022-12-31T14:54:36.451Z,98753.60
2022-12-31T14:57:25.417Z,98758.72
2022-12-31T14:59:59.835Z,98762.63
2022-12-31T15:02:35.832Z,98759.08
2022-12-31T15:05:18.266Z,98757.50
2022-12-31T15:07:58.802Z,98755.74
2022-12-31T15:10:43.212Z,98752.60
2022-12-31T15:13:26.522Z,98756.46
2022-12-31T15:16:22.509Z,98763.54
2022-12-31T15:19:21.067Z,98760.71
2022-12-31T15:22:03.971Z,98764.42
2022-12-31T15:24:36.727Z,98762.67
2022-12-31T15:27:31.161Z,98766.90
2022-12-31T15:30:08.152Z,98764.61
2022-12-31T15:32:43.135Z,98766.70
2022-12-31T15:35:31.273Z,98764.60
2022-12-31T15:38:20.359Z,98764.40
2022-12-31T15:40:55.366Z,98772.67
2022-12-31T15:43:34.044Z,98782.74
2022-12-31T15:46:16.921Z,98784.65
2022-12-31T15:48:55.450Z,98786.23
2022-12-31T15:51:33.842Z,98778.16
2022-12-31T15:54:07.923Z,98775.17
2022-12-31T15:56:47.516Z,98777.28
2022-12-31T15:59:21.275Z,98783.29
2022-12-31T16:01:55.352Z,98790.36
2022-12-31T16:04:34.446Z,98796.55
2022-12-31T16:07:08.343Z,98797.42
2022-12-31T16:09:41.168Z,98788.27
2022-12-31T16:12:23.079Z,98791.28
2022-12-31T16:15:00.086Z,98789.51
2022-12-31T16:17:34.466Z,98791.79
2022-12-31T16:20:25.548Z,98798.31
2022-12-31T16:23:00.124Z,98798.12
2022-12-31T16:25:38.423Z,98795.64
2022-12-31T16:28:16.157Z,98790.69
2022-12-31T16:31:01.675Z,98798.60
2022-12-31T16:33:35.701Z,98805.80
2022-12-31T16:36:17.257Z,98807.91
2022-12-31T16:38:49.925Z,98804.89
2022-12-31T16:41:24.455Z,98807.52
2022-12-31T16:43:59.149Z,98805.39
2022-12-31T16:46:34.674Z,98814.18
2022-12-31T16:49:14.290Z,98815.58
2022-12-31T16:51:48.112Z,98819.63
2022-12-31T16:54:30.758Z,98835.15
2022-12-31T16:57:05.771Z,98835.30
2022-12-31T16:59:43.397Z,98836.35
2022-12-31T17:02:21.514Z,98830.02
2022-12-31T17:04:56.281Z,98827.02
2022-12-31T17:07:38.753Z,98821.36
2022-12-31T17:10:22.952Z,98821.02
2022-12-31T17:13:27.806Z,98821.19
2022-12-31T17:15:51.931Z,98822.60
2022-12-31T17:18:27.355Z,98827.88
2022-12-31T17:21:09.443Z,98826.45
2022-12-31T17:23:45.919Z,98829.06
2022-12-31T17:26:26.465Z,98831.34
2022-12-31T17:29:01.389Z,98831.16
2022-12-31T17:31:37.796Z,98823.91
2022-12-31T17:34:27.829Z,98826.20
2022-12-31T17:37:26.815Z,98827.26
2022-12-31T17:40:40.903Z,98830.09
2022-12-31T17:42:58.862Z,98835.20
2022-12-31T17:45:32.240Z,98833.95
2022-12-31T17:48:08.699Z,98829.56
2022-12-31T17:50:49.947Z,98833.63
2022-12-31T17:53:24.012Z,98837.35
2022-12-31T17:56:01.623Z,98838.95
2022-12-31T17:58:36.826Z,98836.84
2022-12-31T18:01:10.928Z,98841.44
2022-12-31T18:03:45.356Z,98846.23
2022-12-31T18:06:23.231Z,98846.39
2022-12-31T18:08:59.316Z,98849.04
2022-12-31T18:11:36.353Z,98848.34
2022-12-31T18:14:11.796Z,98854.52
2022-12-31T18:16:46.318Z,98860.00
2022-12-31T18:19:54.305Z,98857.19
2022-12-31T18:22:19.842Z,98851.01
2022-12-31T18:24:55.308Z,98847.50
2022-12-31T18:27:32.321Z,98848.19
2022-12-31T18:30:08.540Z,98850.66
2022-12-31T18:32:42.681Z,98849.80
2022-12-31T18:36:07.177Z,98852.77
2022-12-31T18:38:16.233Z,98846.95
2022-12-31T18:40:55.321Z,98848.54
2022-12-31T18:43:29.591Z,98848.17
2022-12-31T18:46:03.272Z,98851.36
2022-12-31T18:48:35.504Z,98847.65
2022-12-31T18:51:09.104Z,98848.70
2022-12-31T18:53:41.674Z,98844.45
2022-12-31T18:56:17.218Z,98844.45
2022-12-31T18:58:51.040Z,98850.80
2022-12-31T19:01:30.751Z,98856.08
2022-12-31T19:04:04.367Z,98849.54
2022-12-31T19:06:39.183Z,98850.77
2022-12-31T19:09:43.357Z,98861.34
2022-12-31T19:12:13.179Z,98851.45
2022-12-31T19:14:47.318Z,98851.27
2022-12-31T19:17:22.738Z,98853.73
2022-12-31T19:19:55.303Z,98857.11
2022-12-31T19:22:29.956Z,98859.23
2022-12-31T19:25:04.735Z,98864.17
2022-12-31T19:27:37.775Z,98865.58
2022-12-31T19:30:18.270Z,98870.51
2022-12-31T19:32:55.400Z,98871.21
2022-12-31T19:35:28.594Z,98870.31
2022-12-31T19:45:22.551Z,98858.48
2022-12-31T19:47:56.938Z,98852.85
2022-12-31T19:50:36.989Z,98848.98
2022-12-31T19:53:17.973Z,98855.14
2022-12-31T19:55:53.304Z,98870.13
2022-12-31T19:58:36.865Z,98883.17
2022-12-31T20:01:10.297Z,98894.31
2022-12-31T20:03:45.016Z,98889.89
2022-12-31T20:06:19.465Z,98889.52
2022-12-31T20:08:52.498Z,98882.45
2022-12-31T20:11:26.741Z,98884.20
2022-12-31T20:14:00.900Z,98883.33
2022-12-31T20:16:34.927Z,98888.44
2022-12-31T20:19:08.594Z,98890.56
2022-12-31T20:21:43.348Z,98895.30
2022-12-31T20:24:16.960Z,98892.34
2022-12-31T20:26:49.139Z,98889.85
2022-12-31T20:29:22.157Z,98887.39
2022-12-31T20:31:58.712Z,98884.02
2022-12-31T20:34:32.538Z,98888.43
2022-12-31T20:37:05.589Z,98880.82
2022-12-31T20:39:39.627Z,98881.00
2022-12-31T20:42:12.418Z,98882.77
2022-12-31T20:44:45.290Z,98876.63
2022-12-31T20:47:20.880Z,98869.05
2022-12-31T20:50:12.651Z,98863.41
2022-12-31T20:52:46.780Z,98858.13
2022-12-31T20:55:19.690Z,98855.85
2022-12-31T20:57:57.117Z,98864.15
2022-12-31T21:00:30.077Z,98866.80
2022-12-31T21:03:14.283Z,98862.05
2022-12-31T21:05:58.326Z,98861.52
2022-12-31T21:08:35.066Z,98862.05
2022-12-31T21:11:30.407Z,98866.80
2022-12-31T21:14:05.954Z,98870.89
2022-12-31T21:16:39.243Z,98870.55
2022-12-31T21:19:16.399Z,98871.98
2022-12-31T21:21:49.900Z,98868.45
2022-12-31T21:24:24.187Z,98862.64
2022-12-31T21:26:58.713Z,98857.36
2022-12-31T21:29:34.937Z,98865.30
2022-12-31T21:32:08.610Z,98869.88
2022-12-31T21:34:43.259Z,98868.29
2022-12-31T21:37:15.369Z,98876.95
2022-12-31T21:39:49.891Z,98877.67
2022-12-31T21:42:25.172Z,98878.41
2022-12-31T21:44:58.258Z,98875.95
2022-12-31T21:47:49.355Z,98876.34
2022-12-31T21:50:23.080Z,98885.18
2022-12-31T21:52:56.070Z,98884.86
2022-12-31T21:55:49.437Z,98883.82
2022-12-31T21:58:27.770Z,98888.77
2022-12-31T22:01:34.256Z,98890.73
2022-12-31T22:04:28.115Z,98892.66
2022-12-31T22:07:00.723Z,98893.92
2022-12-31T22:09:36.955Z,98902.73
2022-12-31T22:12:10.392Z,98909.63
2022-12-31T22:15:15.889Z,98911.56
2022-12-31T22:17:37.427Z,98906.65
2022-12-31T22:20:28.507Z,98906.64
2022-12-31T22:23:05.298Z,98910.71
2022-12-31T22:25:38.783Z,98913.18
2022-12-31T22:28:37.543Z,98919.69
2022-12-31T22:31:04.315Z,98917.08
2022-12-31T22:33:37.458Z,98913.89
2022-12-31T22:36:14.050Z,98919.18
2022-12-31T22:38:47.131Z,98917.23
2022-12-31T22:41:21.932Z,98917.05
2022-12-31T22:44:02.695Z,98916.35
2022-12-31T22:46:38.437Z,98916.86
2022-12-31T22:49:13.247Z,98916.34
2022-12-31T22:51:57.670Z,98912.30
2022-12-31T22:54:33.145Z,98909.48
2022-12-31T22:57:08.003Z,98904.55
2022-12-31T22:59:41.652Z,98904.55
2022-12-31T23:02:13.649Z,98903.15
2022-12-31T23:04:50.233Z,98904.91
2022-12-31T23:07:23.148Z,98905.79
2022-12-31T23:10:13.793Z,98906.14
2022-12-31T23:12:47.591Z,98908.95
2022-12-31T23:15:39.397Z,98903.49
2022-12-31T23:18:33.527Z,98907.20
2022-12-31T23:21:30.418Z,98912.48
2022-12-31T23:24:04.614Z,98918.47
2022-12-31T23:26:38.183Z,98917.77
2022-12-31T23:29:12.415Z,98911.78
2022-12-31T23:31:49.166Z,98906.33
2022-12-31T23:34:23.920Z,98900.69
